sensor_id;sensor_type;location;lat;lon;timestamp;pressure;altitude;pressure_sealevel;temperature;humidity
11335;BME280;5722;42.620;23.374;2022-07-18T08:31:29;94756.22;;;23.59;35.83
11335;BME280;5722;42.620;23.374;2022-07-18T08:34:01;94770.03;;;23.52;33.87
11335;BME280;5722;42.620;23.374;2022-07-18T08:36:34;94640.09;;;22.61;32.63
11335;BME280;5722;42.620;23.374;2022-07-18T08:39:13;94751.66;;;23.11;33.94
11335;BME280;5722;42.620;23.374;2022-07-18T08:42:07;94615.34;;;22.11;30.83
11335;BME280;5722;42.620;23.374;2022-07-18T08:44:40;94553.56;;;21.53;31.37
11335;BME280;5722;42.620;23.374;2022-07-18T08:47:27;94763.28;;;23.07;32.79
11335;BME280;5722;42.620;23.374;2022-07-18T08:50:04;94583.13;;;22.11;32.40
11335;BME280;5722;42.620;23.374;2022-07-18T08:52:35;94703.25;;;22.58;33.49
11335;BME280;5722;42.620;23.374;2022-07-18T08:55:20;94756.59;;;23.28;32.42
11335;BME280;5722;42.620;23.374;2022-07-18T08:57:55;94700.41;;;23.03;31.09
11335;BME280;5722;42.620;23.374;2022-07-18T09:00:25;94755.09;;;23.41;32.55
11335;BME280;5722;42.620;23.374;2022-07-18T09:03:15;94748.06;;;23.45;32.31
11335;BME280;5722;42.620;23.374;2022-07-18T09:06:04;94752.56;;;23.49;32.06
11335;BME280;5722;42.620;23.374;2022-07-18T09:09:01;94704.94;;;23.50;33.51
11335;BME280;5722;42.620;23.374;2022-07-18T09:11:32;94738.44;;;23.81;34.91
11335;BME280;5722;42.620;23.374;2022-07-18T09:14:13;94731.97;;;23.64;33.00
11335;BME280;5722;42.620;23.374;2022-07-18T09:19:55;94470.81;;;21.89;34.50
11335;BME280;5722;42.620;23.374;2022-07-18T09:22:30;94733.78;;;23.68;35.14
11335;BME280;5722;42.620;23.374;2022-07-18T09:25:09;94727.81;;;23.71;35.72
11335;BME280;5722;42.620;23.374;2022-07-18T09:27:41;94761.72;;;24.10;36.53
11335;BME280;5722;42.620;23.374;2022-07-18T09:30:23;94746.88;;;23.94;35.45
11335;BME280;5722;42.620;23.374;2022-07-18T09:32:55;94617.56;;;23.05;34.92
11335;BME280;5722;42.620;23.374;2022-07-18T09:35:46;94559.19;;;22.15;36.64
11335;BME280;5722;42.620;23.374;2022-07-18T09:38:29;94753.28;;;23.55;36.18
11335;BME280;5722;42.620;23.374;2022-07-18T09:41:02;94745.78;;;23.76;37.20
11335;BME280;5722;42.620;23.374;2022-07-18T09:43:47;94673.84;;;23.39;37.26
11335;BME280;5722;42.620;23.374;2022-07-18T09:46:29;94769.34;;;24.03;37.27
11335;BME280;5722;42.620;23.374;2022-07-18T09:49:12;94739.53;;;23.99;38.38
11335;BME280;5722;42.620;23.374;2022-07-18T09:52:09;94586.38;;;23.22;35.71
11335;BME280;5722;42.620;23.374;2022-07-18T09:54:46;94735.06;;;24.27;36.92
11335;BME280;5722;42.620;23.374;2022-07-18T09:57:29;94734.72;;;24.15;38.65
11335;BME280;5722;42.620;23.374;2022-07-18T10:00:05;94667.69;;;23.95;37.58
11335;BME280;5722;42.620;23.374;2022-07-18T10:02:52;94751.06;;;24.56;37.83
11335;BME280;5722;42.620;23.374;2022-07-18T10:05:26;94546.56;;;23.24;37.41
11335;BME280;5722;42.620;23.374;2022-07-18T10:08:09;94711.66;;;24.09;39.18
11335;BME280;5722;42.620;23.374;2022-07-18T10:10:47;94720.19;;;24.49;38.43
11335;BME280;5722;42.620;23.374;2022-07-18T10:13:38;94717.81;;;24.61;38.87
11335;BME280;5722;42.620;23.374;2022-07-18T10:16:06;94734.06;;;24.88;36.01
11335;BME280;5722;42.620;23.374;2022-07-18T10:18:43;94732.63;;;24.77;35.49
11335;BME280;5722;42.620;23.374;2022-07-18T10:21:12;94684.56;;;24.52;35.31
11335;BME280;5722;42.620;23.374;2022-07-18T10:24:23;94717.50;;;24.62;35.82
11335;BME280;5722;42.620;23.374;2022-07-18T10:27:22;94717.44;;;24.81;35.96
11335;BME280;5722;42.620;23.374;2022-07-18T10:30:11;94691.91;;;24.92;35.95
11335;BME280;5722;42.620;23.374;2022-07-18T10:32:55;94696.13;;;24.98;35.45
11335;BME280;5722;42.620;23.374;2022-07-18T10:39:01;94687.44;;;25.29;36.58
11335;BME280;5722;42.620;23.374;2022-07-18T10:42:15;94707.59;;;25.59;35.86
11335;BME280;5722;42.620;23.374;2022-07-18T10:44:46;94699.28;;;25.69;33.57
11335;BME280;5722;42.620;23.374;2022-07-18T10:47:18;94698.28;;;25.65;35.25
11335;BME280;5722;42.620;23.374;2022-07-18T10:50:07;94681.19;;;25.42;36.59
11335;BME280;5722;42.620;23.374;2022-07-18T10:53:03;94699.34;;;25.91;36.24
11335;BME280;5722;42.620;23.374;2022-07-18T10:55:34;94692.41;;;26.21;38.13
11335;BME280;5722;42.620;23.374;2022-07-18T10:58:28;94697.88;;;26.30;37.06
11335;BME280;5722;42.620;23.374;2022-07-18T11:01:04;94617.38;;;25.96;36.27
11335;BME280;5722;42.620;23.374;2022-07-18T11:03:42;94693.84;;;26.72;34.61
11335;BME280;5722;42.620;23.374;2022-07-18T11:06:10;94688.91;;;26.66;33.41
11335;BME280;5722;42.620;23.374;2022-07-18T11:08:39;94684.06;;;26.54;33.81
11335;BME280;5722;42.620;23.374;2022-07-18T11:11:12;94687.00;;;26.66;34.60
11335;BME280;5722;42.620;23.374;2022-07-18T11:14:09;94688.91;;;26.66;33.19
11335;BME280;5722;42.620;23.374;2022-07-18T11:17:05;94687.41;;;26.51;31.36
11335;BME280;5722;42.620;23.374;2022-07-18T11:19:34;94677.78;;;26.45;33.86
11335;BME280;5722;42.620;23.374;2022-07-18T11:22:26;94679.00;;;26.61;33.05
11335;BME280;5722;42.620;23.374;2022-07-18T11:24:58;94674.38;;;26.62;32.81
11335;BME280;5722;42.620;23.374;2022-07-18T11:27:30;94560.41;;;25.84;33.08
11335;BME280;5722;42.620;23.374;2022-07-18T11:30:18;94691.28;;;26.98;30.92
11335;BME280;5722;42.620;23.374;2022-07-18T11:32:47;94676.91;;;26.58;30.28
11335;BME280;5722;42.620;23.374;2022-07-18T11:35:16;94674.97;;;26.50;30.82
11335;BME280;5722;42.620;23.374;2022-07-18T11:37:48;94586.97;;;26.13;32.24
11335;BME280;5722;42.620;23.374;2022-07-18T11:40:19;94672.03;;;27.00;31.35
11335;BME280;5722;42.620;23.374;2022-07-18T11:42:48;94681.88;;;27.27;31.99
11335;BME280;5722;42.620;23.374;2022-07-18T11:45:22;94668.50;;;27.39;30.21
11335;BME280;5722;42.620;23.374;2022-07-18T11:47:54;94663.59;;;27.50;28.28
11335;BME280;5722;42.620;23.374;2022-07-18T11:50:37;94610.03;;;27.12;29.06
11335;BME280;5722;42.620;23.374;2022-07-18T11:53:07;94652.47;;;27.60;29.67
11335;BME280;5722;42.620;23.374;2022-07-18T11:55:40;94648.53;;;27.75;29.61
11335;BME280;5722;42.620;23.374;2022-07-18T11:58:11;94617.59;;;27.84;31.56
11335;BME280;5722;42.620;23.374;2022-07-18T12:00:50;94509.88;;;27.38;29.00
11335;BME280;5722;42.620;23.374;2022-07-18T12:03:22;94444.44;;;26.67;29.17
11335;BME280;5722;42.620;23.374;2022-07-18T12:05:52;94516.13;;;26.56;27.78
11335;BME280;5722;42.620;23.374;2022-07-18T12:08:33;94625.63;;;27.15;27.47
11335;BME280;5722;42.620;23.374;2022-07-18T12:11:05;94629.44;;;27.14;28.13
11335;BME280;5722;42.620;23.374;2022-07-18T12:13:50;94542.41;;;26.72;28.01
11335;BME280;5722;42.620;23.374;2022-07-18T12:19:32;94623.44;;;27.34;27.05
11335;BME280;5722;42.620;23.374;2022-07-18T12:22:06;94636.94;;;27.17;27.61
11335;BME280;5722;42.620;23.374;2022-07-18T12:24:49;94627.66;;;27.01;27.06
11335;BME280;5722;42.620;23.374;2022-07-18T12:27:33;94605.84;;;27.06;28.20
11335;BME280;5722;42.620;23.374;2022-07-18T12:30:17;94624.34;;;27.21;29.01
11335;BME280;5722;42.620;23.374;2022-07-18T12:32:48;94629.13;;;27.24;29.55
11335;BME280;5722;42.620;23.374;2022-07-18T12:35:44;94613.22;;;27.14;29.13
11335;BME280;5722;42.620;23.374;2022-07-18T12:38:13;94640.81;;;27.51;29.06
11335;BME280;5722;42.620;23.374;2022-07-18T12:40:50;94552.22;;;27.25;29.92
11335;BME280;5722;42.620;23.374;2022-07-18T12:43:29;94623.78;;;27.59;26.17
11335;BME280;5722;42.620;23.374;2022-07-18T12:46:01;94513.50;;;26.90;26.93
11335;BME280;5722;42.620;23.374;2022-07-18T12:48:31;94614.44;;;27.74;27.03
11335;BME280;5722;42.620;23.374;2022-07-18T12:51:06;94589.84;;;27.44;23.83
11335;BME280;5722;42.620;23.374;2022-07-18T12:53:38;94615.84;;;27.71;23.46
11335;BME280;5722;42.620;23.374;2022-07-18T12:56:06;94614.06;;;28.01;22.80
11335;BME280;5722;42.620;23.374;2022-07-18T12:58:35;94603.72;;;27.94;23.05
11335;BME280;5722;42.620;23.374;2022-07-18T13:01:05;94551.16;;;27.69;24.10
11335;BME280;5722;42.620;23.374;2022-07-18T13:03:34;94606.22;;;28.17;25.88
11335;BME280;5722;42.620;23.374;2022-07-18T13:06:03;94599.72;;;28.26;28.23
11335;BME280;5722;42.620;23.374;2022-07-18T13:08:31;94600.19;;;28.28;28.12
11335;BME280;5722;42.620;23.374;2022-07-18T13:11:05;94613.47;;;28.60;28.76
11335;BME280;5722;42.620;23.374;2022-07-18T13:13:35;94597.31;;;28.80;29.18
11335;BME280;5722;42.620;23.374;2022-07-18T13:16:05;94617.44;;;28.71;27.86
11335;BME280;5722;42.620;23.374;2022-07-18T13:18:38;94545.19;;;28.19;26.14
11335;BME280;5722;42.620;23.374;2022-07-18T13:21:31;94602.69;;;28.42;27.45
11335;BME280;5722;42.620;23.374;2022-07-18T13:23:59;94599.09;;;28.68;26.94
11335;BME280;5722;42.620;23.374;2022-07-18T13:26:27;94598.97;;;28.64;28.07
11335;BME280;5722;42.620;23.374;2022-07-18T13:29:03;94595.47;;;28.55;28.66
11335;BME280;5722;42.620;23.374;2022-07-18T13:31:32;94516.34;;;28.06;28.93
11335;BME280;5722;42.620;23.374;2022-07-18T13:34:08;94553.22;;;28.45;31.79
11335;BME280;5722;42.620;23.374;2022-07-18T13:36:39;94453.03;;;27.47;30.12
11335;BME280;5722;42.620;23.374;2022-07-18T13:39:14;94602.63;;;28.60;30.57
11335;BME280;5722;42.620;23.374;2022-07-18T13:41:42;94593.56;;;28.55;30.27
11335;BME280;5722;42.620;23.374;2022-07-18T13:44:14;94591.25;;;28.75;30.41
11335;BME280;5722;42.620;23.374;2022-07-18T13:46:45;94616.03;;;29.32;32.45
11335;BME280;5722;42.620;23.374;2022-07-18T13:49:13;94586.47;;;29.60;30.07
11335;BME280;5722;42.620;23.374;2022-07-18T13:51:44;94589.81;;;29.36;30.41
11335;BME280;5722;42.620;23.374;2022-07-18T13:54:16;94585.59;;;28.97;32.66
11335;BME280;5722;42.620;23.374;2022-07-18T13:56:46;94566.25;;;28.61;31.18
11335;BME280;5722;42.620;23.374;2022-07-18T13:59:17;94488.91;;;27.26;31.56
11335;BME280;5722;42.620;23.374;2022-07-18T14:01:45;94564.03;;;27.38;33.65
11335;BME280;5722;42.620;23.374;2022-07-18T14:04:15;94591.88;;;28.16;32.53
11335;BME280;5722;42.620;23.374;2022-07-18T14:06:54;94618.16;;;28.42;32.77
11335;BME280;5722;42.620;23.374;2022-07-18T14:09:24;94576.09;;;28.74;33.02
11335;BME280;5722;42.620;23.374;2022-07-18T14:11:53;94522.97;;;28.73;32.30
11335;BME280;5722;42.620;23.374;2022-07-18T14:14:21;94594.34;;;29.53;31.46
11335;BME280;5722;42.620;23.374;2022-07-18T14:16:49;94572.13;;;29.30;30.98
11335;BME280;5722;42.620;23.374;2022-07-18T14:19:19;94594.22;;;29.50;30.88
11335;BME280;5722;42.620;23.374;2022-07-18T14:21:52;94597.72;;;29.71;30.07
11335;BME280;5722;42.620;23.374;2022-07-18T14:24:23;94584.44;;;29.28;30.22
11335;BME280;5722;42.620;23.374;2022-07-18T14:26:52;94539.00;;;29.37;31.56
11335;BME280;5722;42.620;23.374;2022-07-18T14:29:20;94589.72;;;29.74;29.81
11335;BME280;5722;42.620;23.374;2022-07-18T14:31:52;94586.06;;;29.70;30.58
11335;BME280;5722;42.620;23.374;2022-07-18T14:34:23;94579.72;;;29.16;31.29
11335;BME280;5722;42.620;23.374;2022-07-18T14:36:55;94298.66;;;27.17;31.54
11335;BME280;5722;42.620;23.374;2022-07-18T14:39:35;94332.25;;;27.63;31.47
11335;BME280;5722;42.620;23.374;2022-07-18T14:42:05;94306.06;;;27.84;31.76
11335;BME280;5722;42.620;23.374;2022-07-18T14:44:34;94542.34;;;29.42;31.78
11335;BME280;5722;42.620;23.374;2022-07-18T14:47:02;94594.03;;;29.75;31.20
11335;BME280;5722;42.620;23.374;2022-07-18T14:49:35;94574.28;;;30.20;30.43
11335;BME280;5722;42.620;23.374;2022-07-18T14:52:07;94414.91;;;29.58;30.14
11335;BME280;5722;42.620;23.374;2022-07-18T14:54:42;94539.44;;;30.59;29.77
11335;BME280;5722;42.620;23.374;2022-07-18T14:57:11;94576.22;;;30.89;29.11
11335;BME280;5722;42.620;23.374;2022-07-18T14:59:41;94583.72;;;30.80;30.30
11335;BME280;5722;42.620;23.374;2022-07-18T15:02:10;94531.41;;;30.50;29.67
11335;BME280;5722;42.620;23.374;2022-07-18T15:04:42;94580.88;;;31.13;28.55
11335;BME280;5722;42.620;23.374;2022-07-18T15:07:19;94543.28;;;30.58;29.34
11335;BME280;5722;42.620;23.374;2022-07-18T15:09:56;94582.06;;;30.55;29.75
11335;BME280;5722;42.620;23.374;2022-07-18T15:12:45;94591.47;;;30.12;29.51
11335;BME280;5722;42.620;23.374;2022-07-18T15:15:26;94567.53;;;29.72;30.96
11335;BME280;5722;42.620;23.374;2022-07-18T15:18:21;94574.63;;;28.76;31.97
11335;BME280;5722;42.620;23.374;2022-07-18T15:20:52;94573.44;;;28.65;33.10
11335;BME280;5722;42.620;23.374;2022-07-18T15:23:29;94463.88;;;27.47;33.02
11335;BME280;5722;42.620;23.374;2022-07-18T15:25:58;94570.22;;;28.08;34.20
11335;BME280;5722;42.620;23.374;2022-07-18T15:28:25;94577.84;;;29.08;32.24
11335;BME280;5722;42.620;23.374;2022-07-18T15:30:54;94581.41;;;29.71;30.49
11335;BME280;5722;42.620;23.374;2022-07-18T15:33:22;94579.75;;;29.37;31.79
11335;BME280;5722;42.620;23.374;2022-07-18T15:35:56;94579.91;;;29.82;30.49
11335;BME280;5722;42.620;23.374;2022-07-18T15:38:30;94564.41;;;29.41;31.52
11335;BME280;5722;42.620;23.374;2022-07-18T15:40:59;94575.81;;;29.76;30.03
11335;BME280;5722;42.620;23.374;2022-07-18T15:43:27;94603.91;;;29.80;30.10
11335;BME280;5722;42.620;23.374;2022-07-18T15:45:55;94605.50;;;30.35;29.58
11335;BME280;5722;42.620;23.374;2022-07-18T15:48:24;94553.09;;;30.71;29.41
11335;BME280;5722;42.620;23.374;2022-07-18T15:50:55;94548.31;;;30.68;30.23
11335;BME280;5722;42.620;23.374;2022-07-18T15:53:32;94500.09;;;30.93;29.08
11335;BME280;5722;42.620;23.374;2022-07-18T15:56:00;94568.28;;;30.97;28.84
11335;BME280;5722;42.620;23.374;2022-07-18T15:58:30;94549.22;;;31.21;28.89
11335;BME280;5722;42.620;23.374;2022-07-18T16:00:58;94553.50;;;31.46;29.05
11335;BME280;5722;42.620;23.374;2022-07-18T16:03:27;94582.03;;;31.77;29.99
11335;BME280;5722;42.620;23.374;2022-07-18T16:05:56;94506.06;;;32.03;29.09
11335;BME280;5722;42.620;23.374;2022-07-18T16:08:27;94568.66;;;32.28;27.25
11335;BME280;5722;42.620;23.374;2022-07-18T16:10:56;94568.28;;;31.33;28.56
11335;BME280;5722;42.620;23.374;2022-07-18T16:13:25;94573.19;;;30.46;29.20
11335;BME280;5722;42.620;23.374;2022-07-18T16:15:57;94579.97;;;30.85;29.50
11335;BME280;5722;42.620;23.374;2022-07-18T16:18:25;94568.00;;;30.53;29.81
11335;BME280;5722;42.620;23.374;2022-07-18T16:20:52;94568.50;;;30.67;30.02
11335;BME280;5722;42.620;23.374;2022-07-18T16:23:21;94571.09;;;30.76;30.08
11335;BME280;5722;42.620;23.374;2022-07-18T16:25:58;94609.81;;;30.81;29.84
11335;BME280;5722;42.620;23.374;2022-07-18T16:28:27;94566.47;;;31.01;29.19
11335;BME280;5722;42.620;23.374;2022-07-18T16:30:55;94572.44;;;30.57;29.46
11335;BME280;5722;42.620;23.374;2022-07-18T16:33:23;94543.56;;;30.65;30.03
11335;BME280;5722;42.620;23.374;2022-07-18T16:35:51;94564.19;;;31.03;29.68
11335;BME280;5722;42.620;23.374;2022-07-18T16:38:26;94436.28;;;30.05;29.73
11335;BME280;5722;42.620;23.374;2022-07-18T16:41:00;94460.69;;;29.93;29.64
11335;BME280;5722;42.620;23.374;2022-07-18T16:43:32;94569.19;;;30.64;30.37
11335;BME280;5722;42.620;23.374;2022-07-18T16:46:00;94526.00;;;30.05;29.83
11335;BME280;5722;42.620;23.374;2022-07-18T16:48:32;94578.25;;;30.68;30.38
11335;BME280;5722;42.620;23.374;2022-07-18T16:51:01;94577.16;;;31.18;29.12
11335;BME280;5722;42.620;23.374;2022-07-18T16:53:33;94471.22;;;30.52;29.44
11335;BME280;5722;42.620;23.374;2022-07-18T16:56:10;94562.81;;;31.33;29.29
11335;BME280;5722;42.620;23.374;2022-07-18T16:58:38;94571.19;;;31.93;29.16
11335;BME280;5722;42.620;23.374;2022-07-18T17:01:07;94585.75;;;31.32;28.78
11335;BME280;5722;42.620;23.374;2022-07-18T17:03:38;94597.34;;;31.29;28.79
11335;BME280;5722;42.620;23.374;2022-07-18T17:06:21;94581.53;;;31.35;29.40
11335;BME280;5722;42.620;23.374;2022-07-18T17:08:50;94546.97;;;30.86;29.15
11335;BME280;5722;42.620;23.374;2022-07-18T17:11:24;94582.34;;;30.86;29.80
11335;BME280;5722;42.620;23.374;2022-07-18T17:13:53;94547.09;;;30.32;30.40
11335;BME280;5722;42.620;23.374;2022-07-18T17:16:24;94609.91;;;30.40;30.55
11335;BME280;5722;42.620;23.374;2022-07-18T17:18:55;94587.44;;;30.63;30.64
11335;BME280;5722;42.620;23.374;2022-07-18T17:21:22;94576.44;;;29.94;31.67
11335;BME280;5722;42.620;23.374;2022-07-18T17:23:53;94582.03;;;29.77;32.04
11335;BME280;5722;42.620;23.374;2022-07-18T17:26:26;94609.69;;;29.58;32.35
11335;BME280;5722;42.620;23.374;2022-07-18T17:28:55;94623.66;;;29.39;31.90
11335;BME280;5722;42.620;23.374;2022-07-18T17:31:26;94593.94;;;28.83;33.74
11335;BME280;5722;42.620;23.374;2022-07-18T17:33:56;94598.06;;;28.43;33.95
11335;BME280;5722;42.620;23.374;2022-07-18T17:36:24;94589.97;;;28.34;33.73
11335;BME280;5722;42.620;23.374;2022-07-18T17:38:56;94599.28;;;27.81;34.89
11335;BME280;5722;42.620;23.374;2022-07-18T17:41:42;94576.00;;;27.46;36.08
11335;BME280;5722;42.620;23.374;2022-07-18T17:44:15;94475.66;;;26.02;37.97
11335;BME280;5722;42.620;23.374;2022-07-18T17:46:59;94541.78;;;25.74;38.19
11335;BME280;5722;42.620;23.374;2022-07-18T17:49:34;94602.56;;;25.35;40.30
11335;BME280;5722;42.620;23.374;2022-07-18T17:52:12;94460.97;;;24.05;41.72
11335;BME280;5722;42.620;23.374;2022-07-18T17:54:59;94542.41;;;23.83;43.49
11335;BME280;5722;42.620;23.374;2022-07-18T17:58:00;94463.34;;;23.47;45.30
11335;BME280;5722;42.620;23.374;2022-07-18T18:00:41;94542.41;;;23.83;47.10
11335;BME280;5722;42.620;23.374;2022-07-18T18:03:18;94603.44;;;23.88;48.60
11335;BME280;5722;42.620;23.374;2022-07-18T18:05:48;94615.03;;;23.51;49.68
11335;BME280;5722;42.620;23.374;2022-07-18T18:08:25;94614.31;;;23.26;52.23
11335;BME280;5722;42.620;23.374;2022-07-18T18:11:04;94611.00;;;23.11;55.61
11335;BME280;5722;42.620;23.374;2022-07-18T18:13:37;94585.16;;;22.72;56.78
11335;BME280;5722;42.620;23.374;2022-07-18T18:16:09;94614.63;;;22.77;59.19
11335;BME280;5722;42.620;23.374;2022-07-18T18:18:51;94612.44;;;22.36;61.93
11335;BME280;5722;42.620;23.374;2022-07-18T18:21:22;94599.53;;;22.10;64.16
11335;BME280;5722;42.620;23.374;2022-07-18T18:23:52;94552.75;;;21.53;65.39
11335;BME280;5722;42.620;23.374;2022-07-18T18:26:21;94600.34;;;21.71;66.88
11335;BME280;5722;42.620;23.374;2022-07-18T18:28:52;94619.00;;;21.86;69.55
11335;BME280;5722;42.620;23.374;2022-07-18T18:31:20;94633.13;;;21.68;70.67
11335;BME280;5722;42.620;23.374;2022-07-18T18:33:50;94638.75;;;21.27;71.01
11335;BME280;5722;42.620;23.374;2022-07-18T18:36:19;94637.50;;;21.54;72.77
11335;BME280;5722;42.620;23.374;2022-07-18T18:39:09;94630.88;;;21.41;74.74
11335;BME280;5722;42.620;23.374;2022-07-18T18:41:39;94575.94;;;20.89;77.17
11335;BME280;5722;42.620;23.374;2022-07-18T18:44:10;94644.16;;;21.17;78.36
11335;BME280;5722;42.620;23.374;2022-07-18T18:46:40;94655.25;;;20.90;79.50
11335;BME280;5722;42.620;23.374;2022-07-18T18:49:12;94648.34;;;20.74;77.63
11335;BME280;5722;42.620;23.374;2022-07-18T18:51:42;94619.25;;;20.42;77.92
11335;BME280;5722;42.620;23.374;2022-07-18T18:54:19;94651.38;;;20.42;77.61
11335;BME280;5722;42.620;23.374;2022-07-18T18:56:51;94651.91;;;20.34;77.08
11335;BME280;5722;42.620;23.374;2022-07-18T18:59:31;94638.00;;;20.16;77.96
11335;BME280;5722;42.620;23.374;2022-07-18T19:02:00;94655.41;;;20.24;78.89
11335;BME280;5722;42.620;23.374;2022-07-18T19:04:31;94647.41;;;20.09;80.24
11335;BME280;5722;42.620;23.374;2022-07-18T19:07:02;94477.56;;;18.94;80.01
11335;BME280;5722;42.620;23.374;2022-07-18T19:09:43;94655.41;;;19.98;79.78
11335;BME280;5722;42.620;23.374;2022-07-18T19:12:16;94663.97;;;20.00;80.81
11335;BME280;5722;42.620;23.374;2022-07-18T19:15:17;94663.44;;;20.04;82.18
11335;BME280;5722;42.620;23.374;2022-07-18T19:17:46;94663.19;;;19.95;83.19
11335;BME280;5722;42.620;23.374;2022-07-18T19:20:20;94653.00;;;19.72;83.07
11335;BME280;5722;42.620;23.374;2022-07-18T19:22:51;94647.13;;;19.80;85.08
11335;BME280;5722;42.620;23.374;2022-07-18T19:25:22;94661.06;;;19.92;84.69
11335;BME280;5722;42.620;23.374;2022-07-18T19:27:56;94662.91;;;19.86;86.38
11335;BME280;5722;42.620;23.374;2022-07-18T19:30:34;94688.59;;;19.82;88.68
11335;BME280;5722;42.620;23.374;2022-07-18T19:33:07;94612.28;;;19.29;88.44
11335;BME280;5722;42.620;23.374;2022-07-18T19:35:44;94497.41;;;18.31;91.82
11335;BME280;5722;42.620;23.374;2022-07-18T19:38:18;94620.06;;;19.35;94.65
11335;BME280;5722;42.620;23.374;2022-07-18T19:40:48;94661.00;;;19.46;98.40
11335;BME280;5722;42.620;23.374;2022-07-18T19:43:18;94667.09;;;19.31;100.00
11335;BME280;5722;42.620;23.374;2022-07-18T19:46:02;94664.97;;;19.33;99.60
11335;BME280;5722;42.620;23.374;2022-07-18T19:48:38;94670.03;;;19.30;100.00
11335;BME280;5722;42.620;23.374;2022-07-18T19:51:08;94632.50;;;18.89;98.66
11335;BME280;5722;42.620;23.374;2022-07-18T19:53:46;94647.50;;;19.05;100.00
11335;BME280;5722;42.620;23.374;2022-07-18T19:56:16;94684.66;;;19.07;100.00
11335;BME280;5722;42.620;23.374;2022-07-18T19:58:45;94695.59;;;19.00;100.00
11335;BME280;5722;42.620;23.374;2022-07-18T20:01:18;94675.72;;;18.76;100.00
11335;BME280;5722;42.620;23.374;2022-07-18T20:03:47;94679.56;;;18.53;100.00
11335;BME280;5722;42.620;23.374;2022-07-18T20:06:28;94679.78;;;18.41;100.00
11335;BME280;5722;42.620;23.374;2022-07-18T20:09:01;94680.78;;;18.30;100.00
11335;BME280;5722;42.620;23.374;2022-07-18T20:11:32;94684.25;;;18.31;100.00
11335;BME280;5722;42.620;23.374;2022-07-18T20:14:07;94680.75;;;18.25;100.00
11335;BME280;5722;42.620;23.374;2022-07-18T20:16:44;94650.69;;;18.03;100.00
11335;BME280;5722;42.620;23.374;2022-07-18T20:19:12;94681.72;;;18.14;100.00
11335;BME280;5722;42.620;23.374;2022-07-18T20:21:39;94652.69;;;17.85;100.00
11335;BME280;5722;42.620;23.374;2022-07-18T20:24:07;94693.09;;;17.99;100.00
11335;BME280;5722;42.620;23.374;2022-07-18T20:26:39;94668.63;;;17.21;100.00
11335;BME280;5722;42.620;23.374;2022-07-18T20:29:24;94535.56;;;16.83;100.00
11335;BME280;5722;42.620;23.374;2022-07-18T20:32:13;94484.19;;;16.55;100.00
11335;BME280;5722;42.620;23.374;2022-07-18T20:34:54;94419.69;;;15.55;100.00
11335;BME280;5722;42.620;23.374;2022-07-18T20:42:41;94684.66;;;17.53;100.00
11335;BME280;5722;42.620;23.374;2022-07-18T20:45:13;94685.75;;;17.57;100.00
11335;BME280;5722;42.620;23.374;2022-07-18T20:47:44;94672.03;;;17.44;100.00
11335;BME280;5722;42.620;23.374;2022-07-18T20:50:14;94665.72;;;17.50;100.00
11335;BME280;5722;42.620;23.374;2022-07-18T20:52:42;94695.72;;;17.67;100.00
11335;BME280;5722;42.620;23.374;2022-07-18T20:55:11;94672.03;;;17.44;100.00
11335;BME280;5722;42.620;23.374;2022-07-18T20:57:39;94458.38;;;15.63;100.00
11335;BME280;5722;42.620;23.374;2022-07-18T21:00:08;94710.06;;;17.12;100.00
11335;BME280;5722;42.620;23.374;2022-07-18T21:02:43;94567.69;;;16.27;100.00
11335;BME280;5722;42.620;23.374;2022-07-18T21:05:12;94650.31;;;16.59;100.00
11335;BME280;5722;42.620;23.374;2022-07-18T21:07:42;94716.47;;;17.11;100.00
11335;BME280;5722;42.620;23.374;2022-07-18T21:10:11;94709.28;;;17.12;100.00
11335;BME280;5722;42.620;23.374;2022-07-18T21:12:44;94572.81;;;16.34;100.00
11335;BME280;5722;42.620;23.374;2022-07-18T21:15:15;94696.38;;;17.25;100.00
11335;BME280;5722;42.620;23.374;2022-07-18T21:17:49;94703.13;;;17.33;100.00
11335;BME280;5722;42.620;23.374;2022-07-18T21:20:24;94704.47;;;17.36;100.00
11335;BME280;5722;42.620;23.374;2022-07-18T21:22:57;94705.03;;;17.38;100.00
11335;BME280;5722;42.620;23.374;2022-07-18T21:25:31;94647.16;;;17.06;100.00
11335;BME280;5722;42.620;23.374;2022-07-18T21:28:01;94675.59;;;17.27;100.00
11335;BME280;5722;42.620;23.374;2022-07-18T21:30:29;94622.34;;;17.00;100.00
11335;BME280;5722;42.620;23.374;2022-07-18T21:33:00;94694.47;;;17.48;100.00
11335;BME280;5722;42.620;23.374;2022-07-18T21:35:29;94619.41;;;16.80;100.00
11335;BME280;5722;42.620;23.374;2022-07-18T21:37:58;94701.84;;;17.41;100.00
11335;BME280;5722;42.620;23.374;2022-07-18T21:40:32;94610.13;;;16.83;100.00
11335;BME280;5722;42.620;23.374;2022-07-18T21:43:20;94708.00;;;17.41;100.00
11335;BME280;5722;42.620;23.374;2022-07-18T21:45:59;94705.84;;;17.38;100.00
11335;BME280;5722;42.620;23.374;2022-07-18T21:48:39;94703.69;;;17.35;100.00
11335;BME280;5722;42.620;23.374;2022-07-18T21:51:11;94700.75;;;17.37;100.00
11335;BME280;5722;42.620;23.374;2022-07-18T21:53:39;94699.66;;;17.32;100.00
11335;BME280;5722;42.620;23.374;2022-07-18T21:56:12;94691.25;;;17.19;100.00
11335;BME280;5722;42.620;23.374;2022-07-18T21:58:43;94652.25;;;16.86;100.00
11335;BME280;5722;42.620;23.374;2022-07-18T22:01:13;94706.22;;;17.25;100.00
11335;BME280;5722;42.620;23.374;2022-07-18T22:03:48;94703.75;;;17.18;100.00
11335;BME280;5722;42.620;23.374;2022-07-18T22:06:18;94675.91;;;17.04;100.00
11335;BME280;5722;42.620;23.374;2022-07-18T22:08:47;94660.84;;;16.93;100.00
11335;BME280;5722;42.620;23.374;2022-07-18T22:11:15;94607.59;;;16.49;100.00
11335;BME280;5722;42.620;23.374;2022-07-18T22:13:44;94701.19;;;17.01;100.00
11335;BME280;5722;42.620;23.374;2022-07-18T22:16:20;94674.84;;;16.83;100.00
11335;BME280;5722;42.620;23.374;2022-07-18T22:19:11;94696.06;;;17.00;100.00
11335;BME280;5722;42.620;23.374;2022-07-18T22:21:40;94690.19;;;16.98;100.00